sensor_id;sensor_type;location;lat;lon;timestamp;temperature;humidity
39045;DHT22;52192;52.002;5.956;2023-06-10T00:01:42;25.10;48.10
39045;DHT22;52192;52.002;5.956;2023-06-10T00:04:08;25.00;48.10
39045;DHT22;52192;52.002;5.956;2023-06-10T00:06:34;25.00;48.00
39045;DHT22;52192;52.002;5.956;2023-06-10T00:09:04;25.00;48.00
39045;DHT22;52192;52.002;5.956;2023-06-10T00:11:31;24.90;47.90
39045;DHT22;52192;52.002;5.956;2023-06-10T00:13:58;24.90;47.80
39045;DHT22;52192;52.002;5.956;2023-06-10T00:16:24;24.90;48.50
39045;DHT22;52192;52.002;5.956;2023-06-10T00:18:50;24.90;47.90
39045;DHT22;52192;52.002;5.956;2023-06-10T00:21:21;24.80;47.80
39045;DHT22;52192;52.002;5.956;2023-06-10T00:23:47;24.70;47.80
39045;DHT22;52192;52.002;5.956;2023-06-10T00:26:13;24.70;47.80
39045;DHT22;52192;52.002;5.956;2023-06-10T00:28:39;24.70;48.00
39045;DHT22;52192;52.002;5.956;2023-06-10T00:31:04;24.60;47.90
39045;DHT22;52192;52.002;5.956;2023-06-10T00:33:30;24.60;47.80
39045;DHT22;52192;52.002;5.956;2023-06-10T00:35:56;24.60;47.80
39045;DHT22;52192;52.002;5.956;2023-06-10T00:38:22;24.60;47.80
39045;DHT22;52192;52.002;5.956;2023-06-10T00:40:47;24.50;47.60
39045;DHT22;52192;52.002;5.956;2023-06-10T00:43:13;24.50;47.60
39045;DHT22;52192;52.002;5.956;2023-06-10T00:45:39;24.50;47.60
39045;DHT22;52192;52.002;5.956;2023-06-10T00:48:05;24.40;47.60
39045;DHT22;52192;52.002;5.956;2023-06-10T00:50:31;24.40;47.50
39045;DHT22;52192;52.002;5.956;2023-06-10T00:52:58;24.40;47.50
39045;DHT22;52192;52.002;5.956;2023-06-10T00:55:24;24.30;47.40
39045;DHT22;52192;52.002;5.956;2023-06-10T00:57:53;24.30;47.30
39045;DHT22;52192;52.002;5.956;2023-06-10T01:00:19;24.30;47.30
39045;DHT22;52192;52.002;5.956;2023-06-10T01:02:46;24.20;47.20
39045;DHT22;52192;52.002;5.956;2023-06-10T01:05:11;24.20;47.20
39045;DHT22;52192;52.002;5.956;2023-06-10T01:08:00;24.20;47.20
39045;DHT22;52192;52.002;5.956;2023-06-10T01:13:01;24.10;47.20
39045;DHT22;52192;52.002;5.956;2023-06-10T01:15:33;24.00;47.20
39045;DHT22;52192;52.002;5.956;2023-06-10T01:18:04;24.00;47.40
39045;DHT22;52192;52.002;5.956;2023-06-10T01:20:34;24.00;47.40
39045;DHT22;52192;52.002;5.956;2023-06-10T01:23:02;23.90;47.40
39045;DHT22;52192;52.002;5.956;2023-06-10T01:25:29;23.90;47.40
39045;DHT22;52192;52.002;5.956;2023-06-10T01:30:48;23.80;47.40
39045;DHT22;52192;52.002;5.956;2023-06-10T01:33:18;23.80;47.50
39045;DHT22;52192;52.002;5.956;2023-06-10T01:35:47;23.70;47.40
39045;DHT22;52192;52.002;5.956;2023-06-10T01:38:14;23.70;47.40
39045;DHT22;52192;52.002;5.956;2023-06-10T01:40:40;23.70;47.40
39045;DHT22;52192;52.002;5.956;2023-06-10T01:43:06;23.70;47.50
39045;DHT22;52192;52.002;5.956;2023-06-10T01:45:32;23.60;47.50
39045;DHT22;52192;52.002;5.956;2023-06-10T01:47:58;23.60;47.60
39045;DHT22;52192;52.002;5.956;2023-06-10T01:50:23;23.60;47.60
39045;DHT22;52192;52.002;5.956;2023-06-10T01:52:49;23.60;47.70
39045;DHT22;52192;52.002;5.956;2023-06-10T01:55:15;23.50;47.70
39045;DHT22;52192;52.002;5.956;2023-06-10T01:57:40;23.50;47.80
39045;DHT22;52192;52.002;5.956;2023-06-10T02:00:07;23.50;47.80
39045;DHT22;52192;52.002;5.956;2023-06-10T02:02:33;23.50;47.90
39045;DHT22;52192;52.002;5.956;2023-06-10T02:04:59;23.40;48.00
39045;DHT22;52192;52.002;5.956;2023-06-10T02:07:25;23.40;48.10
39045;DHT22;52192;52.002;5.956;2023-06-10T02:09:51;23.30;48.10
39045;DHT22;52192;52.002;5.956;2023-06-10T02:12:16;23.30;48.30
39045;DHT22;52192;52.002;5.956;2023-06-10T02:14:42;23.30;48.50
39045;DHT22;52192;52.002;5.956;2023-06-10T02:17:08;23.20;48.70
39045;DHT22;52192;52.002;5.956;2023-06-10T02:19:38;23.20;48.90
39045;DHT22;52192;52.002;5.956;2023-06-10T02:22:08;23.10;49.00
39045;DHT22;52192;52.002;5.956;2023-06-10T02:24:35;23.10;49.10
39045;DHT22;52192;52.002;5.956;2023-06-10T02:27:00;23.10;49.30
39045;DHT22;52192;52.002;5.956;2023-06-10T02:29:27;23.10;49.40
39045;DHT22;52192;52.002;5.956;2023-06-10T02:31:53;23.00;49.60
39045;DHT22;52192;52.002;5.956;2023-06-10T02:34:18;23.00;49.60
39045;DHT22;52192;52.002;5.956;2023-06-10T02:36:45;22.90;49.80
39045;DHT22;52192;52.002;5.956;2023-06-10T02:39:10;22.90;50.00
39045;DHT22;52192;52.002;5.956;2023-06-10T02:41:36;22.90;50.10
39045;DHT22;52192;52.002;5.956;2023-06-10T02:44:02;22.80;50.20
39045;DHT22;52192;52.002;5.956;2023-06-10T02:46:28;22.80;50.30
39045;DHT22;52192;52.002;5.956;2023-06-10T02:48:54;22.80;50.50
39045;DHT22;52192;52.002;5.956;2023-06-10T02:51:19;22.80;50.70
39045;DHT22;52192;52.002;5.956;2023-06-10T02:53:46;22.70;50.70
39045;DHT22;52192;52.002;5.956;2023-06-10T02:56:13;22.70;50.90
39045;DHT22;52192;52.002;5.956;2023-06-10T02:58:39;22.70;51.00
39045;DHT22;52192;52.002;5.956;2023-06-10T03:01:04;22.70;51.10
39045;DHT22;52192;52.002;5.956;2023-06-10T03:03:30;22.70;51.20
39045;DHT22;52192;52.002;5.956;2023-06-10T03:05:59;22.60;51.20
39045;DHT22;52192;52.002;5.956;2023-06-10T03:08:24;22.60;51.40
39045;DHT22;52192;52.002;5.956;2023-06-10T03:10:50;22.60;51.50
39045;DHT22;52192;52.002;5.956;2023-06-10T03:13:16;22.60;51.70
39045;DHT22;52192;52.002;5.956;2023-06-10T03:15:42;22.50;51.70
39045;DHT22;52192;52.002;5.956;2023-06-10T03:18:07;22.50;51.80
39045;DHT22;52192;52.002;5.956;2023-06-10T03:20:33;22.50;52.00
39045;DHT22;52192;52.002;5.956;2023-06-10T03:23:04;22.40;52.10
39045;DHT22;52192;52.002;5.956;2023-06-10T03:25:32;22.40;52.20
39045;DHT22;52192;52.002;5.956;2023-06-10T03:27:57;22.40;52.30
39045;DHT22;52192;52.002;5.956;2023-06-10T03:30:23;22.40;52.50
39045;DHT22;52192;52.002;5.956;2023-06-10T03:32:49;22.40;52.40
39045;DHT22;52192;52.002;5.956;2023-06-10T03:35:14;22.30;52.60
39045;DHT22;52192;52.002;5.956;2023-06-10T03:37:40;22.30;52.70
39045;DHT22;52192;52.002;5.956;2023-06-10T03:40:07;22.30;52.80
39045;DHT22;52192;52.002;5.956;2023-06-10T03:42:34;22.20;52.90
39045;DHT22;52192;52.002;5.956;2023-06-10T03:45:00;22.20;53.10
39045;DHT22;52192;52.002;5.956;2023-06-10T03:47:26;22.20;53.10
39045;DHT22;52192;52.002;5.956;2023-06-10T03:49:52;22.10;53.00
39045;DHT22;52192;52.002;5.956;2023-06-10T03:52:18;22.20;53.20
39045;DHT22;52192;52.002;5.956;2023-06-10T03:54:44;22.20;53.20
39045;DHT22;52192;52.002;5.956;2023-06-10T03:57:11;22.10;53.30
39045;DHT22;52192;52.002;5.956;2023-06-10T03:59:36;22.10;53.40
39045;DHT22;52192;52.002;5.956;2023-06-10T04:02:02;22.10;53.50
39045;DHT22;52192;52.002;5.956;2023-06-10T04:04:30;22.10;53.60
39045;DHT22;52192;52.002;5.956;2023-06-10T04:06:56;22.10;53.70
39045;DHT22;52192;52.002;5.956;2023-06-10T04:09:21;22.10;53.70
39045;DHT22;52192;52.002;5.956;2023-06-10T04:11:47;22.10;53.90
39045;DHT22;52192;52.002;5.956;2023-06-10T04:14:13;22.00;53.90
39045;DHT22;52192;52.002;5.956;2023-06-10T04:16:39;22.10;54.10
39045;DHT22;52192;52.002;5.956;2023-06-10T04:19:04;22.10;54.10
39045;DHT22;52192;52.002;5.956;2023-06-10T04:21:30;22.10;54.10
39045;DHT22;52192;52.002;5.956;2023-06-10T04:23:56;22.10;54.20
39045;DHT22;52192;52.002;5.956;2023-06-10T04:26:21;22.10;54.20
39045;DHT22;52192;52.002;5.956;2023-06-10T04:28:47;22.10;54.20
39045;DHT22;52192;52.002;5.956;2023-06-10T04:31:13;22.10;54.30
39045;DHT22;52192;52.002;5.956;2023-06-10T04:33:38;22.10;54.30
39045;DHT22;52192;52.002;5.956;2023-06-10T04:36:04;22.10;54.40
39045;DHT22;52192;52.002;5.956;2023-06-10T04:38:32;22.10;54.50
39045;DHT22;52192;52.002;5.956;2023-06-10T04:40:58;22.10;54.60
39045;DHT22;52192;52.002;5.956;2023-06-10T04:43:23;22.10;54.50
39045;DHT22;52192;52.002;5.956;2023-06-10T04:45:49;22.10;54.50
39045;DHT22;52192;52.002;5.956;2023-06-10T04:48:15;22.10;54.50
39045;DHT22;52192;52.002;5.956;2023-06-10T04:50:40;22.10;54.70
39045;DHT22;52192;52.002;5.956;2023-06-10T04:53:06;22.10;54.70
39045;DHT22;52192;52.002;5.956;2023-06-10T04:55:32;22.10;54.80
39045;DHT22;52192;52.002;5.956;2023-06-10T04:57:59;22.20;54.80
39045;DHT22;52192;52.002;5.956;2023-06-10T05:00:25;22.20;54.80
39045;DHT22;52192;52.002;5.956;2023-06-10T05:02:51;22.30;54.90
39045;DHT22;52192;52.002;5.956;2023-06-10T05:05:17;22.30;54.90
39045;DHT22;52192;52.002;5.956;2023-06-10T05:07:43;22.30;54.80
39045;DHT22;52192;52.002;5.956;2023-06-10T05:10:09;22.30;54.90
39045;DHT22;52192;52.002;5.956;2023-06-10T05:12:35;22.30;54.90
39045;DHT22;52192;52.002;5.956;2023-06-10T05:15:01;22.40;54.90
39045;DHT22;52192;52.002;5.956;2023-06-10T05:17:27;22.40;54.80
39045;DHT22;52192;52.002;5.956;2023-06-10T05:19:53;22.40;54.90
39045;DHT22;52192;52.002;5.956;2023-06-10T05:22:18;22.50;55.10
39045;DHT22;52192;52.002;5.956;2023-06-10T05:24:44;22.50;55.20
39045;DHT22;52192;52.002;5.956;2023-06-10T05:27:10;22.50;55.10
39045;DHT22;52192;52.002;5.956;2023-06-10T05:29:36;22.50;55.00
39045;DHT22;52192;52.002;5.956;2023-06-10T05:32:02;22.60;55.00
39045;DHT22;52192;52.002;5.956;2023-06-10T05:34:31;22.60;55.00
39045;DHT22;52192;52.002;5.956;2023-06-10T05:36:57;22.60;55.00
39045;DHT22;52192;52.002;5.956;2023-06-10T05:39:23;22.60;54.80
39045;DHT22;52192;52.002;5.956;2023-06-10T05:41:48;22.70;54.80
39045;DHT22;52192;52.002;5.956;2023-06-10T05:44:14;22.70;54.70
39045;DHT22;52192;52.002;5.956;2023-06-10T05:46:40;22.80;54.80
39045;DHT22;52192;52.002;5.956;2023-06-10T05:49:06;22.90;54.70
39045;DHT22;52192;52.002;5.956;2023-06-10T05:51:32;22.90;54.50
39045;DHT22;52192;52.002;5.956;2023-06-10T05:53:57;22.90;54.40
39045;DHT22;52192;52.002;5.956;2023-06-10T05:56:23;23.00;54.40
39045;DHT22;52192;52.002;5.956;2023-06-10T05:58:49;23.10;54.30
39045;DHT22;52192;52.002;5.956;2023-06-10T06:01:15;23.10;54.10
39045;DHT22;52192;52.002;5.956;2023-06-10T06:03:41;23.10;54.10
39045;DHT22;52192;52.002;5.956;2023-06-10T06:06:06;23.10;54.00
39045;DHT22;52192;52.002;5.956;2023-06-10T06:08:32;23.10;54.00
39045;DHT22;52192;52.002;5.956;2023-06-10T06:10:58;23.20;54.00
39045;DHT22;52192;52.002;5.956;2023-06-10T06:13:24;23.20;53.90
39045;DHT22;52192;52.002;5.956;2023-06-10T06:15:50;23.20;53.80
39045;DHT22;52192;52.002;5.956;2023-06-10T06:18:16;23.30;53.60
39045;DHT22;52192;52.002;5.956;2023-06-10T06:20:42;23.40;53.60
39045;DHT22;52192;52.002;5.956;2023-06-10T06:23:07;23.50;53.50
39045;DHT22;52192;52.002;5.956;2023-06-10T06:25:36;23.50;53.40
39045;DHT22;52192;52.002;5.956;2023-06-10T06:28:05;23.60;54.10
39045;DHT22;52192;52.002;5.956;2023-06-10T06:30:31;23.60;53.40
39045;DHT22;52192;52.002;5.956;2023-06-10T06:32:57;23.70;53.30
39045;DHT22;52192;52.002;5.956;2023-06-10T06:35:23;23.70;53.20
39045;DHT22;52192;52.002;5.956;2023-06-10T06:37:48;23.80;53.20
39045;DHT22;52192;52.002;5.956;2023-06-10T06:40:14;23.80;53.10
39045;DHT22;52192;52.002;5.956;2023-06-10T06:42:40;23.90;53.00
39045;DHT22;52192;52.002;5.956;2023-06-10T06:45:06;24.00;53.00
39045;DHT22;52192;52.002;5.956;2023-06-10T06:47:32;24.00;52.80
39045;DHT22;52192;52.002;5.956;2023-06-10T06:49:57;24.00;52.80
39045;DHT22;52192;52.002;5.956;2023-06-10T06:52:23;24.10;52.90
39045;DHT22;52192;52.002;5.956;2023-06-10T06:54:48;24.20;52.70
39045;DHT22;52192;52.002;5.956;2023-06-10T06:57:15;24.20;52.40
39045;DHT22;52192;52.002;5.956;2023-06-10T06:59:40;24.30;52.50
39045;DHT22;52192;52.002;5.956;2023-06-10T07:02:06;24.40;52.40
39045;DHT22;52192;52.002;5.956;2023-06-10T07:04:32;24.40;52.30
39045;DHT22;52192;52.002;5.956;2023-06-10T07:06:57;24.50;52.10
39045;DHT22;52192;52.002;5.956;2023-06-10T07:09:23;24.60;52.00
39045;DHT22;52192;52.002;5.956;2023-06-10T07:11:49;24.70;52.00
39045;DHT22;52192;52.002;5.956;2023-06-10T07:14:14;24.70;51.80
39045;DHT22;52192;52.002;5.956;2023-06-10T07:16:40;24.80;51.60
39045;DHT22;52192;52.002;5.956;2023-06-10T07:19:06;24.90;51.50
39045;DHT22;52192;52.002;5.956;2023-06-10T07:21:31;24.90;51.40
39045;DHT22;52192;52.002;5.956;2023-06-10T07:23:58;25.00;51.40
39045;DHT22;52192;52.002;5.956;2023-06-10T07:26:24;25.10;51.20
39045;DHT22;52192;52.002;5.956;2023-06-10T07:28:51;25.20;51.10
39045;DHT22;52192;52.002;5.956;2023-06-10T07:31:16;25.20;50.80
39045;DHT22;52192;52.002;5.956;2023-06-10T07:33:42;25.30;50.70
39045;DHT22;52192;52.002;5.956;2023-06-10T07:36:09;25.40;50.60
39045;DHT22;52192;52.002;5.956;2023-06-10T07:38:35;25.50;50.50
39045;DHT22;52192;52.002;5.956;2023-06-10T07:41:01;25.60;50.50
39045;DHT22;52192;52.002;5.956;2023-06-10T07:43:26;25.60;50.20
39045;DHT22;52192;52.002;5.956;2023-06-10T07:45:52;25.70;50.00
39045;DHT22;52192;52.002;5.956;2023-06-10T07:48:21;25.70;49.90
39045;DHT22;52192;52.002;5.956;2023-06-10T07:50:47;25.80;49.80
39045;DHT22;52192;52.002;5.956;2023-06-10T07:53:12;25.90;49.60
39045;DHT22;52192;52.002;5.956;2023-06-10T07:55:38;26.00;49.50
39045;DHT22;52192;52.002;5.956;2023-06-10T07:58:04;26.00;49.30
39045;DHT22;52192;52.002;5.956;2023-06-10T08:00:29;26.10;49.10
39045;DHT22;52192;52.002;5.956;2023-06-10T08:02:55;26.20;49.10
39045;DHT22;52192;52.002;5.956;2023-06-10T08:05:21;26.30;49.00
39045;DHT22;52192;52.002;5.956;2023-06-10T08:07:47;26.40;48.90
39045;DHT22;52192;52.002;5.956;2023-06-10T08:10:13;26.50;48.90
39045;DHT22;52192;52.002;5.956;2023-06-10T08:12:38;26.60;48.80
39045;DHT22;52192;52.002;5.956;2023-06-10T08:15:04;26.70;48.60
39045;DHT22;52192;52.002;5.956;2023-06-10T08:17:30;26.80;48.40
39045;DHT22;52192;52.002;5.956;2023-06-10T08:19:56;26.90;48.30
39045;DHT22;52192;52.002;5.956;2023-06-10T08:22:22;26.90;48.20
39045;DHT22;52192;52.002;5.956;2023-06-10T08:24:47;27.00;48.20
39045;DHT22;52192;52.002;5.956;2023-06-10T08:27:13;27.10;48.40
39045;DHT22;52192;52.002;5.956;2023-06-10T08:29:39;27.30;48.00
39045;DHT22;52192;52.002;5.956;2023-06-10T08:32:05;27.40;47.90
39045;DHT22;52192;52.002;5.956;2023-06-10T08:34:33;27.40;47.70
39045;DHT22;52192;52.002;5.956;2023-06-10T08:37:00;27.50;47.70
39045;DHT22;52192;52.002;5.956;2023-06-10T08:39:25;27.60;47.40
39045;DHT22;52192;52.002;5.956;2023-06-10T08:44:33;27.70;47.40
39045;DHT22;52192;52.002;5.956;2023-06-10T08:47:15;27.80;47.10
39045;DHT22;52192;52.002;5.956;2023-06-10T08:49:46;27.90;47.00
39045;DHT22;52192;52.002;5.956;2023-06-10T08:52:15;27.90;46.80
39045;DHT22;52192;52.002;5.956;2023-06-10T08:54:53;27.90;46.50
39045;DHT22;52192;52.002;5.956;2023-06-10T08:57:21;28.00;46.60
39045;DHT22;52192;52.002;5.956;2023-06-10T08:59:48;28.10;46.40
39045;DHT22;52192;52.002;5.956;2023-06-10T09:02:15;28.20;46.00
39045;DHT22;52192;52.002;5.956;2023-06-10T09:04:44;28.10;45.80
39045;DHT22;52192;52.002;5.956;2023-06-10T09:07:12;28.20;45.90
39045;DHT22;52192;52.002;5.956;2023-06-10T09:09:41;28.20;45.90
39045;DHT22;52192;52.002;5.956;2023-06-10T09:12:08;28.30;45.90
39045;DHT22;52192;52.002;5.956;2023-06-10T09:14:33;28.50;45.70
39045;DHT22;52192;52.002;5.956;2023-06-10T09:16:59;28.60;45.60
39045;DHT22;52192;52.002;5.956;2023-06-10T09:19:25;28.70;45.40
39045;DHT22;52192;52.002;5.956;2023-06-10T09:21:52;28.80;45.10
39045;DHT22;52192;52.002;5.956;2023-06-10T09:24:18;28.90;44.80
39045;DHT22;52192;52.002;5.956;2023-06-10T09:26:44;28.90;44.70
39045;DHT22;52192;52.002;5.956;2023-06-10T09:29:11;29.10;44.60
39045;DHT22;52192;52.002;5.956;2023-06-10T09:31:38;29.10;44.30
39045;DHT22;52192;52.002;5.956;2023-06-10T09:34:14;29.20;44.20
39045;DHT22;52192;52.002;5.956;2023-06-10T09:36:42;29.30;44.20
39045;DHT22;52192;52.002;5.956;2023-06-10T09:39:18;29.40;43.80
39045;DHT22;52192;52.002;5.956;2023-06-10T09:41:45;29.50;43.80
39045;DHT22;52192;52.002;5.956;2023-06-10T09:44:19;29.60;43.90
39045;DHT22;52192;52.002;5.956;2023-06-10T09:46:47;29.80;43.90
39045;DHT22;52192;52.002;5.956;2023-06-10T09:49:14;29.90;43.60
39045;DHT22;52192;52.002;5.956;2023-06-10T09:51:53;30.10;43.40
39045;DHT22;52192;52.002;5.956;2023-06-10T09:54:20;30.10;43.20
39045;DHT22;52192;52.002;5.956;2023-06-10T09:56:50;30.20;42.90
39045;DHT22;52192;52.002;5.956;2023-06-10T09:59:28;30.40;42.80
39045;DHT22;52192;52.002;5.956;2023-06-10T10:01:57;30.50;42.70
39045;DHT22;52192;52.002;5.956;2023-06-10T10:04:24;30.50;42.30
39045;DHT22;52192;52.002;5.956;2023-06-10T10:06:50;30.60;42.00
39045;DHT22;52192;52.002;5.956;2023-06-10T10:09:16;30.70;41.90
39045;DHT22;52192;52.002;5.956;2023-06-10T10:11:44;30.70;41.80
39045;DHT22;52192;52.002;5.956;2023-06-10T10:14:09;30.80;41.60
39045;DHT22;52192;52.002;5.956;2023-06-10T10:16:41;30.80;41.30
39045;DHT22;52192;52.002;5.956;2023-06-10T10:19:11;30.90;41.20
39045;DHT22;52192;52.002;5.956;2023-06-10T10:21:48;31.00;40.70
39045;DHT22;52192;52.002;5.956;2023-06-10T10:24:21;31.10;40.10
39045;DHT22;52192;52.002;5.956;2023-06-10T10:26:50;31.20;39.50
39045;DHT22;52192;52.002;5.956;2023-06-10T10:29:37;31.20;39.70
39045;DHT22;52192;52.002;5.956;2023-06-10T10:32:04;31.20;39.60
39045;DHT22;52192;52.002;5.956;2023-06-10T10:34:43;31.30;39.50
39045;DHT22;52192;52.002;5.956;2023-06-10T10:37:10;31.50;39.20
39045;DHT22;52192;52.002;5.956;2023-06-10T10:39:36;31.50;38.20
39045;DHT22;52192;52.002;5.956;2023-06-10T10:42:04;31.60;38.10
39045;DHT22;52192;52.002;5.956;2023-06-10T10:44:31;31.70;38.30
39045;DHT22;52192;52.002;5.956;2023-06-10T10:47:02;31.80;38.10
39045;DHT22;52192;52.002;5.956;2023-06-10T10:49:30;31.80;37.80
39045;DHT22;52192;52.002;5.956;2023-06-10T10:52:00;32.00;37.70
39045;DHT22;52192;52.002;5.956;2023-06-10T10:54:34;32.10;37.40
39045;DHT22;52192;52.002;5.956;2023-06-10T10:57:17;32.20;37.00
39045;DHT22;52192;52.002;5.956;2023-06-10T10:59:52;32.20;37.10
39045;DHT22;52192;52.002;5.956;2023-06-10T11:04:47;32.40;36.80
39045;DHT22;52192;52.002;5.956;2023-06-10T11:07:13;32.50;36.40
39045;DHT22;52192;52.002;5.956;2023-06-10T11:12:50;32.60;36.20
39045;DHT22;52192;52.002;5.956;2023-06-10T11:15:25;32.70;36.10
39045;DHT22;52192;52.002;5.956;2023-06-10T11:20:59;33.10;35.50
39045;DHT22;52192;52.002;5.956;2023-06-10T11:28:40;33.50;35.40
39045;DHT22;52192;52.002;5.956;2023-06-10T11:31:06;33.60;35.30
39045;DHT22;52192;52.002;5.956;2023-06-10T11:33:32;33.70;35.00
39045;DHT22;52192;52.002;5.956;2023-06-10T11:35:58;33.70;34.90
39045;DHT22;52192;52.002;5.956;2023-06-10T11:38:24;33.80;35.00
39045;DHT22;52192;52.002;5.956;2023-06-10T11:40:51;33.80;34.80
39045;DHT22;52192;52.002;5.956;2023-06-10T11:43:20;34.00;34.50
39045;DHT22;52192;52.002;5.956;2023-06-10T11:45:46;34.10;34.40
39045;DHT22;52192;52.002;5.956;2023-06-10T11:48:12;34.10;34.40
39045;DHT22;52192;52.002;5.956;2023-06-10T11:50:38;34.10;34.20
39045;DHT22;52192;52.002;5.956;2023-06-10T11:53:04;34.20;34.10
39045;DHT22;52192;52.002;5.956;2023-06-10T11:55:44;34.20;33.90
39045;DHT22;52192;52.002;5.956;2023-06-10T11:58:20;34.20;33.90
39045;DHT22;52192;52.002;5.956;2023-06-10T12:00:51;34.30;34.00
39045;DHT22;52192;52.002;5.956;2023-06-10T12:03:19;34.40;33.60
39045;DHT22;52192;52.002;5.956;2023-06-10T12:06:05;34.40;33.60
39045;DHT22;52192;52.002;5.956;2023-06-10T12:08:32;34.40;33.50
39045;DHT22;52192;52.002;5.956;2023-06-10T12:10:58;34.50;33.40
39045;DHT22;52192;52.002;5.956;2023-06-10T12:13:27;34.60;33.40
39045;DHT22;52192;52.002;5.956;2023-06-10T12:15:53;34.60;33.00
39045;DHT22;52192;52.002;5.956;2023-06-10T12:18:23;34.60;32.80
39045;DHT22;52192;52.002;5.956;2023-06-10T12:20:50;34.60;33.10
39045;DHT22;52192;52.002;5.956;2023-06-10T12:23:17;34.60;33.20
39045;DHT22;52192;52.002;5.956;2023-06-10T12:25:51;34.70;33.10
39045;DHT22;52192;52.002;5.956;2023-06-10T12:28:26;34.70;32.80
39045;DHT22;52192;52.002;5.956;2023-06-10T12:31:06;34.70;32.90
39045;DHT22;52192;52.002;5.956;2023-06-10T12:33:33;34.80;33.10
39045;DHT22;52192;52.002;5.956;2023-06-10T12:35:58;35.00;33.00
39045;DHT22;52192;52.002;5.956;2023-06-10T12:38:26;35.10;33.00
39045;DHT22;52192;52.002;5.956;2023-06-10T12:41:01;35.10;32.40
39045;DHT22;52192;52.002;5.956;2023-06-10T12:43:31;35.10;32.50
39045;DHT22;52192;52.002;5.956;2023-06-10T12:46:08;35.10;32.40
39045;DHT22;52192;52.002;5.956;2023-06-10T12:48:35;35.20;32.30
39045;DHT22;52192;52.002;5.956;2023-06-10T12:51:01;35.30;32.20
39045;DHT22;52192;52.002;5.956;2023-06-10T12:53:27;35.30;32.00
39045;DHT22;52192;52.002;5.956;2023-06-10T12:55:53;35.40;32.10
39045;DHT22;52192;52.002;5.956;2023-06-10T12:58:22;35.40;32.00
39045;DHT22;52192;52.002;5.956;2023-06-10T13:00:49;35.60;32.10
39045;DHT22;52192;52.002;5.956;2023-06-10T13:03:17;35.70;32.10
39045;DHT22;52192;52.002;5.956;2023-06-10T13:05:43;35.80;31.90
39045;DHT22;52192;52.002;5.956;2023-06-10T13:08:09;35.80;31.90
39045;DHT22;52192;52.002;5.956;2023-06-10T13:10:38;35.90;31.80
39045;DHT22;52192;52.002;5.956;2023-06-10T13:13:03;35.90;31.60
39045;DHT22;52192;52.002;5.956;2023-06-10T13:15:35;35.90;31.40
39045;DHT22;52192;52.002;5.956;2023-06-10T13:18:04;36.00;31.30
39045;DHT22;52192;52.002;5.956;2023-06-10T13:20:30;36.10;31.50
39045;DHT22;52192;52.002;5.956;2023-06-10T13:22:56;36.20;31.40
39045;DHT22;52192;52.002;5.956;2023-06-10T13:25:22;36.30;31.20
39045;DHT22;52192;52.002;5.956;2023-06-10T13:27:48;36.40;31.30
39045;DHT22;52192;52.002;5.956;2023-06-10T13:30:14;36.40;31.10
39045;DHT22;52192;52.002;5.956;2023-06-10T13:32:40;36.50;30.90
39045;DHT22;52192;52.002;5.956;2023-06-10T13:35:06;36.60;30.70
39045;DHT22;52192;52.002;5.956;2023-06-10T13:37:32;36.70;30.80
39045;DHT22;52192;52.002;5.956;2023-06-10T13:39:59;36.80;30.60
39045;DHT22;52192;52.002;5.956;2023-06-10T13:42:25;36.90;30.80
39045;DHT22;52192;52.002;5.956;2023-06-10T13:44:52;37.00;30.70
39045;DHT22;52192;52.002;5.956;2023-06-10T13:47:17;37.00;30.60
39045;DHT22;52192;52.002;5.956;2023-06-10T13:49:43;37.00;30.70
39045;DHT22;52192;52.002;5.956;2023-06-10T13:52:09;37.00;30.70
39045;DHT22;52192;52.002;5.956;2023-06-10T13:54:34;37.00;30.70
39045;DHT22;52192;52.002;5.956;2023-06-10T13:57:03;37.10;31.40
39045;DHT22;52192;52.002;5.956;2023-06-10T13:59:29;37.10;30.60
39045;DHT22;52192;52.002;5.956;2023-06-10T14:01:55;37.10;30.70
39045;DHT22;52192;52.002;5.956;2023-06-10T14:04:22;37.20;30.50
39045;DHT22;52192;52.002;5.956;2023-06-10T14:06:48;37.20;30.30
39045;DHT22;52192;52.002;5.956;2023-06-10T14:09:14;37.20;30.00
39045;DHT22;52192;52.002;5.956;2023-06-10T14:11:40;37.20;29.80
39045;DHT22;52192;52.002;5.956;2023-06-10T14:14:05;37.20;29.90
39045;DHT22;52192;52.002;5.956;2023-06-10T14:16:32;37.20;29.80
39045;DHT22;52192;52.002;5.956;2023-06-10T14:18:57;37.30;29.90
39045;DHT22;52192;52.002;5.956;2023-06-10T14:21:23;37.20;29.80
39045;DHT22;52192;52.002;5.956;2023-06-10T14:23:49;37.30;29.90
39045;DHT22;52192;52.002;5.956;2023-06-10T14:26:17;37.30;29.80
39045;DHT22;52192;52.002;5.956;2023-06-10T14:28:42;37.40;29.90
39045;DHT22;52192;52.002;5.956;2023-06-10T14:31:08;37.40;29.90
39045;DHT22;52192;52.002;5.956;2023-06-10T14:33:34;37.50;29.90
39045;DHT22;52192;52.002;5.956;2023-06-10T14:35:59;37.60;29.90
39045;DHT22;52192;52.002;5.956;2023-06-10T14:38:25;37.50;29.80
39045;DHT22;52192;52.002;5.956;2023-06-10T14:40:51;37.40;29.60
39045;DHT22;52192;52.002;5.956;2023-06-10T14:43:17;37.40;29.60
39045;DHT22;52192;52.002;5.956;2023-06-10T14:45:43;37.30;29.70
39045;DHT22;52192;52.002;5.956;2023-06-10T14:48:10;37.30;29.80
39045;DHT22;52192;52.002;5.956;2023-06-10T14:50:36;37.30;29.60
39045;DHT22;52192;52.002;5.956;2023-06-10T14:53:02;37.20;29.70
39045;DHT22;52192;52.002;5.956;2023-06-10T14:55:28;37.20;29.70
39045;DHT22;52192;52.002;5.956;2023-06-10T14:57:53;37.30;29.60
39045;DHT22;52192;52.002;5.956;2023-06-10T15:00:19;37.20;29.60
39045;DHT22;52192;52.002;5.956;2023-06-10T15:02:48;37.20;29.50
39045;DHT22;52192;52.002;5.956;2023-06-10T15:05:17;37.20;29.60
39045;DHT22;52192;52.002;5.956;2023-06-10T15:07:45;37.20;29.60
39045;DHT22;52192;52.002;5.956;2023-06-10T15:10:11;37.20;29.70
39045;DHT22;52192;52.002;5.956;2023-06-10T15:12:36;37.20;29.60
39045;DHT22;52192;52.002;5.956;2023-06-10T15:15:03;37.20;29.80
39045;DHT22;52192;52.002;5.956;2023-06-10T15:17:29;37.20;29.90
39045;DHT22;52192;52.002;5.956;2023-06-10T15:19:54;37.20;29.90
39045;DHT22;52192;52.002;5.956;2023-06-10T15:22:20;37.20;29.90
39045;DHT22;52192;52.002;5.956;2023-06-10T15:24:46;37.20;29.90
39045;DHT22;52192;52.002;5.956;2023-06-10T15:27:12;37.20;29.70
39045;DHT22;52192;52.002;5.956;2023-06-10T15:29:37;37.10;29.70
39045;DHT22;52192;52.002;5.956;2023-06-10T15:32:03;37.20;29.90
39045;DHT22;52192;52.002;5.956;2023-06-10T15:34:29;37.20;29.90
39045;DHT22;52192;52.002;5.956;2023-06-10T15:36:55;37.20;29.70
39045;DHT22;52192;52.002;5.956;2023-06-10T15:39:20;37.30;29.70
39045;DHT22;52192;52.002;5.956;2023-06-10T15:41:46;37.30;29.50
39045;DHT22;52192;52.002;5.956;2023-06-10T15:44:12;37.20;29.60
39045;DHT22;52192;52.002;5.956;2023-06-10T15:46:37;37.20;29.60
39045;DHT22;52192;52.002;5.956;2023-06-10T15:49:03;37.20;29.70
39045;DHT22;52192;52.002;5.956;2023-06-10T15:51:29;37.10;29.60